Time;durP1;ratioP1;P1;durP2;ratioP2;P2;SDS_P1;SDS_P2;PMS_P1;PMS_P2;Temp;Humidity;BMP_temperature;BMP_pressure;BME280_temperature;BME280_humidity;BME280_pressure;Samples;Min_cycle;Max_cycle;Signal;HPM_P1;HPM_P2
2023/01/26 00:01:10;;;;;;;3.38;2.10;;;;;;;;;;10074051;29;20044;-83
2023/01/26 00:06:16;;;;;;;2.58;1.95;;;;;;;;;;10067824;29;20049;-84
2023/01/26 00:11:23;;;;;;;3.50;2.13;;;;;;;;;;10073197;29;20472;-83
2023/01/26 00:16:28;;;;;;;2.22;1.67;;;;;;;;;;10073294;29;20057;-84
2023/01/26 00:21:31;;;;;;;2.13;1.57;;;;;;;;;;10091198;29;20508;-83
2023/01/26 00:26:35;;;;;;;2.65;1.83;;;;;;;;;;10071079;29;20144;-83
2023/01/26 00:31:39;;;;;;;3.25;2.08;;;;;;;;;;10079708;29;20048;-82
2023/01/26 00:36:43;;;;;;;3.70;2.05;;;;;;;;;;10094231;29;20049;-83
2023/01/26 00:47:10;;;;;;;3.75;2.20;;;;;;;;;;10078343;29;20064;-84
2023/01/26 00:52:13;;;;;;;3.85;2.13;;;;;;;;;;10080718;29;20053;-83
2023/01/26 00:57:17;;;;;;;5.35;3.20;;;;;;;;;;10074137;29;20060;-83
2023/01/26 01:02:22;;;;;;;7.32;4.43;;;;;;;;;;10054172;29;20695;-83
2023/01/26 01:07:25;;;;;;;13.77;7.47;;;;;;;;;;10067005;29;20059;-83
2023/01/26 01:12:28;;;;;;;7.82;4.22;;;;;;;;;;10100798;29;20694;-83
2023/01/26 01:17:35;;;;;;;9.23;4.88;;;;;;;;;;10074146;29;20053;-83
2023/01/26 01:22:39;;;;;;;7.05;3.78;;;;;;;;;;10067217;29;20068;-83
2023/01/26 01:27:42;;;;;;;5.28;3.08;;;;;;;;;;10073761;29;20050;-83
2023/01/26 01:32:50;;;;;;;8.32;4.78;;;;;;;;;;10083139;29;20052;-83
2023/01/26 01:37:53;;;;;;;11.32;5.15;;;;;;;;;;10068133;29;20057;-83
2023/01/26 01:42:57;;;;;;;11.10;5.72;;;;;;;;;;10057548;29;20052;-83
2023/01/26 01:48:04;;;;;;;10.18;5.22;;;;;;;;;;10096151;29;20539;-83
2023/01/26 01:53:11;;;;;;;5.65;3.65;;;;;;;;;;10111263;29;20399;-84
2023/01/26 01:58:16;;;;;;;6.18;3.15;;;;;;;;;;10142444;29;20131;-86
2023/01/26 02:03:21;;;;;;;14.45;7.72;;;;;;;;;;10109180;29;20044;-86
2023/01/26 02:08:27;;;;;;;15.55;7.95;;;;;;;;;;10116779;29;20480;-87
2023/01/26 02:13:31;;;;;;;7.65;4.72;;;;;;;;;;10090140;29;20504;-88
2023/01/26 02:18:36;;;;;;;11.43;5.50;;;;;;;;;;10112424;29;20056;-86
2023/01/26 02:23:55;;;;;;;9.60;5.57;;;;;;;;;;10102776;29;20112;-85
2023/01/26 02:29:02;;;;;;;7.22;4.32;;;;;;;;;;10083984;29;20428;-85
2023/01/26 02:34:06;;;;;;;4.68;2.83;;;;;;;;;;10124392;29;20374;-83
2023/01/26 02:39:26;;;;;;;4.70;2.78;;;;;;;;;;10116291;29;20083;-83
2023/01/26 02:44:32;;;;;;;4.82;2.85;;;;;;;;;;10116483;29;20508;-83
2023/01/26 02:49:49;;;;;;;4.05;2.47;;;;;;;;;;10116089;29;20056;-84
2023/01/26 03:00:19;;;;;;;3.05;2.03;;;;;;;;;;10079150;29;20055;-86
2023/01/26 03:05:24;;;;;;;4.78;2.63;;;;;;;;;;10064047;29;20761;-86
2023/01/26 03:10:28;;;;;;;3.50;2.70;;;;;;;;;;10058716;29;20045;-83
2023/01/26 03:15:42;;;;;;;4.68;2.60;;;;;;;;;;10072281;29;20649;-84
2023/01/26 03:31:32;;;;;;;4.32;3.10;;;;;;;;;;10077260;29;20079;-85
2023/01/26 03:36:36;;;;;;;3.55;2.13;;;;;;;;;;10063157;29;20060;-85
2023/01/26 03:57:50;;;;;;;4.30;2.75;;;;;;;;;;10062976;29;20053;-83
2023/01/26 04:08:25;;;;;;;5.72;2.47;;;;;;;;;;10063030;29;20918;-83
2023/01/26 04:24:23;;;;;;;6.95;3.67;;;;;;;;;;10049443;29;20045;-82
2023/01/26 04:29:30;;;;;;;7.40;3.97;;;;;;;;;;10058701;29;20080;-82
2023/01/26 04:34:35;;;;;;;6.95;4.28;;;;;;;;;;10086290;29;20067;-83
2023/01/26 04:39:46;;;;;;;6.82;3.67;;;;;;;;;;10069240;29;20336;-82
2023/01/26 04:44:51;;;;;;;7.65;4.45;;;;;;;;;;10078141;29;20465;-82
2023/01/26 04:49:59;;;;;;;12.38;6.75;;;;;;;;;;10056385;29;20152;-82
2023/01/26 04:55:03;;;;;;;10.43;5.70;;;;;;;;;;10086588;29;20445;-83
2023/01/26 05:00:10;;;;;;;8.98;4.72;;;;;;;;;;10051974;29;20064;-82
2023/01/26 05:05:16;;;;;;;14.40;6.50;;;;;;;;;;10063699;29;20356;-82
2023/01/26 05:10:20;;;;;;;12.82;7.00;;;;;;;;;;10048442;29;20049;-83
2023/01/26 05:15:41;;;;;;;11.57;5.00;;;;;;;;;;10097916;29;20771;-82
2023/01/26 05:21:02;;;;;;;9.80;4.95;;;;;;;;;;10071488;29;20100;-86
2023/01/26 05:26:18;;;;;;;9.75;4.47;;;;;;;;;;10085961;29;20056;-83
2023/01/26 05:31:41;;;;;;;8.32;4.15;;;;;;;;;;10047825;29;20068;-82
2023/01/26 05:36:46;;;;;;;8.00;3.92;;;;;;;;;;10063550;29;20569;-82
2023/01/26 05:41:50;;;;;;;10.73;6.00;;;;;;;;;;10075669;29;20120;-82
2023/01/26 05:46:53;;;;;;;10.52;5.53;;;;;;;;;;10100886;29;20048;-82
2023/01/26 05:51:59;;;;;;;7.97;4.18;;;;;;;;;;10064928;29;20052;-80
2023/01/26 05:57:04;;;;;;;8.70;4.57;;;;;;;;;;10082752;29;20072;-81
2023/01/26 06:02:12;;;;;;;9.68;4.65;;;;;;;;;;10053380;29;20072;-82
2023/01/26 06:07:20;;;;;;;7.55;4.18;;;;;;;;;;10047419;29;20057;-86
2023/01/26 06:12:50;;;;;;;6.82;3.28;;;;;;;;;;10081755;29;20068;-85
2023/01/26 06:18:08;;;;;;;6.70;3.53;;;;;;;;;;10171333;29;20059;-85
2023/01/26 06:23:14;;;;;;;5.22;2.85;;;;;;;;;;10160408;29;20044;-85
2023/01/26 06:28:20;;;;;;;5.78;3.35;;;;;;;;;;10142234;29;20459;-85
2023/01/26 06:33:24;;;;;;;5.20;2.85;;;;;;;;;;10152059;29;20051;-85
2023/01/26 06:38:29;;;;;;;7.15;3.65;;;;;;;;;;10133651;29;20049;-85
2023/01/26 06:43:34;;;;;;;9.60;4.27;;;;;;;;;;10143644;29;20530;-85
2023/01/26 06:48:38;;;;;;;10.23;4.70;;;;;;;;;;10154148;29;20055;-85
2023/01/26 06:53:48;;;;;;;9.20;4.25;;;;;;;;;;10160529;29;20507;-83
2023/01/26 06:59:24;;;;;;;7.00;3.45;;;;;;;;;;10152097;29;20064;-83
2023/01/26 07:04:59;;;;;;;7.18;3.95;;;;;;;;;;10140332;29;20123;-82
2023/01/26 07:10:06;;;;;;;8.10;4.00;;;;;;;;;;10159154;29;20045;-83
2023/01/26 07:15:11;;;;;;;9.82;4.80;;;;;;;;;;10192638;29;20213;-84
2023/01/26 07:20:15;;;;;;;11.80;5.70;;;;;;;;;;10167731;29;20452;-85
2023/01/26 07:25:20;;;;;;;14.25;6.45;;;;;;;;;;10185952;29;20047;-88
2023/01/26 07:30:24;;;;;;;12.18;6.22;;;;;;;;;;10191582;29;20082;-85
2023/01/26 07:35:30;;;;;;;10.55;4.80;;;;;;;;;;10175159;29;20052;-85
2023/01/26 07:40:35;;;;;;;10.77;5.28;;;;;;;;;;10154421;29;20512;-86
2023/01/26 07:45:38;;;;;;;8.70;4.13;;;;;;;;;;10146722;29;20055;-90
2023/01/26 07:50:46;;;;;;;10.65;4.63;;;;;;;;;;10165185;29;20055;-83
2023/01/26 07:55:51;;;;;;;9.27;4.82;;;;;;;;;;10170251;29;20566;-84
2023/01/26 08:00:55;;;;;;;15.60;7.40;;;;;;;;;;10172346;29;20062;-85
2023/01/26 08:05:59;;;;;;;10.50;5.00;;;;;;;;;;10176496;29;20062;-88
2023/01/26 08:11:04;;;;;;;13.02;6.18;;;;;;;;;;10162218;29;20270;-83
2023/01/26 08:16:10;;;;;;;10.57;4.93;;;;;;;;;;10163627;29;20052;-88
2023/01/26 08:21:15;;;;;;;10.15;5.53;;;;;;;;;;10164428;29;20460;-84
2023/01/26 08:26:20;;;;;;;8.63;3.85;;;;;;;;;;10164315;29;20138;-88
2023/01/26 08:31:24;;;;;;;11.45;5.30;;;;;;;;;;10188261;29;20238;-85
2023/01/26 08:36:28;;;;;;;11.23;4.80;;;;;;;;;;10183468;29;20290;-86
2023/01/26 08:41:33;;;;;;;8.75;4.15;;;;;;;;;;10137204;29;20520;-85
2023/01/26 08:46:37;;;;;;;8.32;3.50;;;;;;;;;;10184153;29;20122;-90
2023/01/26 08:51:40;;;;;;;7.85;3.67;;;;;;;;;;10187638;29;20055;-90
2023/01/26 08:56:45;;;;;;;8.15;3.85;;;;;;;;;;10165082;29;20041;-85
2023/01/26 09:01:49;;;;;;;7.90;4.30;;;;;;;;;;10161390;29;20100;-87
2023/01/26 09:06:53;;;;;;;7.90;3.45;;;;;;;;;;10126850;29;20218;-83
2023/01/26 09:11:59;;;;;;;11.68;5.05;;;;;;;;;;10170080;29;20717;-85
2023/01/26 09:17:03;;;;;;;12.68;5.95;;;;;;;;;;10171125;29;20059;-88
2023/01/26 09:22:09;;;;;;;10.10;3.90;;;;;;;;;;10150802;29;20599;-86
2023/01/26 09:27:17;;;;;;;7.47;3.38;;;;;;;;;;10165252;29;20115;-85
2023/01/26 09:32:20;;;;;;;8.23;4.38;;;;;;;;;;10158541;29;20044;-91
2023/01/26 09:37:25;;;;;;;5.22;2.92;;;;;;;;;;10175562;29;20466;-91
2023/01/26 09:42:58;;;;;;;4.28;2.35;;;;;;;;;;10155290;29;20701;-90
2023/01/26 09:48:15;;;;;;;3.35;2.00;;;;;;;;;;10165197;29;20497;-84
2023/01/26 09:53:24;;;;;;;4.00;2.33;;;;;;;;;;10145787;29;20051;-83
2023/01/26 09:58:37;;;;;;;4.15;2.03;;;;;;;;;;10171505;29;20044;-84
2023/01/26 10:03:46;;;;;;;2.53;1.63;;;;;;;;;;10168149;29;20055;-82
2023/01/26 10:08:51;;;;;;;2.80;1.77;;;;;;;;;;10156352;29;20444;-84
2023/01/26 10:14:00;;;;;;;3.33;1.92;;;;;;;;;;10157293;29;20201;-83
2023/01/26 10:19:10;;;;;;;4.40;2.70;;;;;;;;;;10173143;29;20704;-84
2023/01/26 10:24:20;;;;;;;4.50;2.67;;;;;;;;;;10171841;29;20651;-83
2023/01/26 10:29:25;;;;;;;4.60;2.50;;;;;;;;;;10153638;29;20052;-83
2023/01/26 10:34:29;;;;;;;3.40;2.20;;;;;;;;;;10127495;29;20059;-84
2023/01/26 10:39:32;;;;;;;4.65;2.78;;;;;;;;;;10140966;29;20052;-84
2023/01/26 10:44:39;;;;;;;4.95;3.03;;;;;;;;;;10148904;29;20082;-84
2023/01/26 10:49:43;;;;;;;3.67;2.33;;;;;;;;;;10158912;29;20048;-91
2023/01/26 10:54:47;;;;;;;4.90;2.30;;;;;;;;;;10134854;29;20068;-89
2023/01/26 10:59:55;;;;;;;4.55;2.60;;;;;;;;;;10167522;29;20782;-90
2023/01/26 11:05:17;;;;;;;4.30;2.20;;;;;;;;;;10180152;29;20115;-86
2023/01/26 11:10:27;;;;;;;4.30;2.83;;;;;;;;;;10160896;29;20051;-86
2023/01/26 11:15:37;;;;;;;3.15;1.83;;;;;;;;;;10165625;29;20434;-83
2023/01/26 11:20:56;;;;;;;3.45;2.05;;;;;;;;;;10164108;29;20549;-84
2023/01/26 11:26:21;;;;;;;5.63;2.30;;;;;;;;;;10130628;29;20134;-84
2023/01/26 11:31:35;;;;;;;5.50;2.65;;;;;;;;;;10171683;29;20051;-84
2023/01/26 11:36:52;;;;;;;4.13;2.28;;;;;;;;;;10152544;29;20044;-83
2023/01/26 11:42:07;;;;;;;3.90;2.60;;;;;;;;;;10152599;29;20139;-82
2023/01/26 11:47:23;;;;;;;4.57;2.47;;;;;;;;;;10151640;29;20107;-84
2023/01/26 11:52:36;;;;;;;4.95;2.30;;;;;;;;;;10169583;29;20054;-87
2023/01/26 11:57:48;;;;;;;4.70;2.55;;;;;;;;;;10178857;29;20052;-89
2023/01/26 12:02:59;;;;;;;5.45;3.20;;;;;;;;;;10176551;29;20428;-87
2023/01/26 12:08:05;;;;;;;5.57;2.92;;;;;;;;;;10140130;29;20059;-84
2023/01/26 12:13:16;;;;;;;4.97;3.03;;;;;;;;;;10157463;29;20064;-82
2023/01/26 12:18:23;;;;;;;3.58;2.25;;;;;;;;;;10148376;29;20054;-84
2023/01/26 12:23:44;;;;;;;5.47;2.97;;;;;;;;;;10154018;29;20051;-88
2023/01/26 12:28:52;;;;;;;8.05;3.72;;;;;;;;;;10153592;29;20093;-86
2023/01/26 12:33:58;;;;;;;7.10;3.38;;;;;;;;;;10180514;28;20078;-86
2023/01/26 12:39:11;;;;;;;;;;;;;;;;;;10176556;29;20051;-86
2023/01/26 12:44:27;;;;;;;7.70;3.33;;;;;;;;;;10153156;29;19927;-90
2023/01/26 12:49:37;;;;;;;11.40;5.28;;;;;;;;;;10165721;29;20071;-89
2023/01/26 12:54:46;;;;;;;18.83;8.23;;;;;;;;;;10159406;29;20051;-85
2023/01/26 12:59:50;;;;;;;17.17;7.32;;;;;;;;;;10164034;29;20075;-83
2023/01/26 13:04:58;;;;;;;12.90;5.43;;;;;;;;;;10132925;29;20432;-83
2023/01/26 13:10:23;;;;;;;9.88;5.28;;;;;;;;;;10147499;29;20059;-84
2023/01/26 13:15:28;;;;;;;10.07;4.43;;;;;;;;;;10145825;29;20048;-86
2023/01/26 13:20:51;;;;;;;8.27;4.32;;;;;;;;;;10168252;29;20125;-86
2023/01/26 13:26:14;;;;;;;8.43;4.68;;;;;;;;;;10163214;29;20522;-90
2023/01/26 13:31:32;;;;;;;20.10;9.10;;;;;;;;;;10146105;29;20164;-88
2023/01/26 13:36:42;;;;;;;12.13;6.13;;;;;;;;;;10154796;29;20134;-86
2023/01/26 13:41:47;;;;;;;9.95;5.18;;;;;;;;;;10167241;29;20063;-86
2023/01/26 13:46:55;;;;;;;9.93;4.80;;;;;;;;;;10161649;29;20048;-88
2023/01/26 13:52:00;;;;;;;10.68;5.47;;;;;;;;;;10158552;29;20074;-84
2023/01/26 13:57:05;;;;;;;13.10;6.68;;;;;;;;;;10154531;29;20070;-84
2023/01/26 14:02:21;;;;;;;16.77;7.77;;;;;;;;;;10187017;29;20052;-89
2023/01/26 14:07:32;;;;;;;13.38;5.75;;;;;;;;;;10174332;29;20051;-86
2023/01/26 14:12:42;;;;;;;14.77;6.65;;;;;;;;;;10165991;29;20060;-87
2023/01/26 14:17:50;;;;;;;14.48;8.07;;;;;;;;;;10186368;29;20392;-87
2023/01/26 14:23:17;;;;;;;15.18;6.72;;;;;;;;;;10149198;29;20269;-89
2023/01/26 14:28:27;;;;;;;15.27;8.50;;;;;;;;;;10145130;29;20092;-84
2023/01/26 14:33:33;;;;;;;17.45;8.93;;;;;;;;;;10150798;29;20066;-85
2023/01/26 14:38:50;;;;;;;13.93;7.28;;;;;;;;;;10130862;29;20056;-85
2023/01/26 14:44:04;;;;;;;9.73;5.45;;;;;;;;;;10151240;29;20441;-85
2023/01/26 14:49:12;;;;;;;11.90;6.30;;;;;;;;;;10139460;29;20044;-85
2023/01/26 14:54:23;;;;;;;12.27;7.68;;;;;;;;;;10116449;29;20139;-83
2023/01/26 14:59:34;;;;;;;14.18;8.73;;;;;;;;;;10135016;29;20617;-83
2023/01/26 15:04:40;;;;;;;12.32;6.55;;;;;;;;;;10138687;29;20072;-83
2023/01/26 15:09:52;;;;;;;13.60;7.03;;;;;;;;;;10127426;29;20074;-83
2023/01/26 15:14:58;;;;;;;13.20;7.57;;;;;;;;;;10147818;29;20052;-86
2023/01/26 15:20:02;;;;;;;;;;;;;;;;;;10151482;29;20068;-87
2023/01/26 15:25:22;;;;;;;23.42;11.35;;;;;;;;;;10146166;29;19923;-87
2023/01/26 15:30:34;;;;;;;15.40;8.38;;;;;;;;;;10167418;29;20075;-86
2023/01/26 15:35:59;;;;;;;17.90;9.45;;;;;;;;;;10162804;29;20056;-83
2023/01/26 15:41:09;;;;;;;12.90;6.93;;;;;;;;;;10138683;29;20116;-84
2023/01/26 15:46:13;;;;;;;14.70;8.45;;;;;;;;;;10124880;29;20150;-84
2023/01/26 15:51:18;;;;;;;15.73;8.02;;;;;;;;;;10150986;29;20533;-86
2023/01/26 15:56:32;;;;;;;10.35;5.45;;;;;;;;;;10134183;29;20347;-86
2023/01/26 16:01:43;;;;;;;11.85;6.13;;;;;;;;;;10142531;29;20051;-84
2023/01/26 16:06:47;;;;;;;15.98;7.90;;;;;;;;;;10171203;29;20116;-88
2023/01/26 16:11:57;;;;;;;13.20;6.68;;;;;;;;;;10157568;29;20097;-91
2023/01/26 16:17:02;;;;;;;14.90;7.85;;;;;;;;;;10154170;29;20040;-87
2023/01/26 16:22:06;;;;;;;14.32;7.88;;;;;;;;;;10170714;29;20059;-86
2023/01/26 16:27:11;;;;;;;19.42;10.10;;;;;;;;;;10150148;29;20041;-86
2023/01/26 16:32:26;;;;;;;19.73;10.77;;;;;;;;;;10159904;29;20056;-91
2023/01/26 16:37:29;;;;;;;14.68;7.80;;;;;;;;;;10153380;29;20063;-84
2023/01/26 16:42:36;;;;;;;11.07;6.28;;;;;;;;;;10163369;29;20558;-85
2023/01/26 16:47:39;;;;;;;15.80;8.40;;;;;;;;;;10182715;29;20054;-85
2023/01/26 16:52:43;;;;;;;10.50;6.43;;;;;;;;;;10173121;29;20103;-84
2023/01/26 16:57:48;;;;;;;10.75;5.40;;;;;;;;;;10134208;29;20075;-86
2023/01/26 17:02:53;;;;;;;10.98;5.47;;;;;;;;;;10153918;29;20052;-90
2023/01/26 17:07:57;;;;;;;11.45;6.13;;;;;;;;;;10177562;29;20104;-92
2023/01/26 17:13:06;;;;;;;12.75;6.30;;;;;;;;;;10180014;29;20502;-88
2023/01/26 17:18:10;;;;;;;;;;;;;;;;;;10174652;29;20436;-87
2023/01/26 17:23:14;;;;;;;12.93;6.68;;;;;;;;;;10167648;29;19964;-87
2023/01/26 17:28:19;;;;;;;11.45;6.93;;;;;;;;;;10139570;29;20052;-85
2023/01/26 17:33:22;;;;;;;11.75;5.75;;;;;;;;;;10149114;29;20043;-85
2023/01/26 17:38:26;;;;;;;13.55;6.90;;;;;;;;;;10153046;29;20055;-85
2023/01/26 17:43:31;;;;;;;11.38;6.43;;;;;;;;;;10177892;29;20047;-86
2023/01/26 17:48:36;;;;;;;12.02;6.20;;;;;;;;;;10154662;29;20103;-85
2023/01/26 17:53:41;;;;;;;14.13;7.80;;;;;;;;;;10141610;29;20217;-85
2023/01/26 18:09:30;;;;;;;17.40;8.95;;;;;;;;;;10572522;27;20387;-83
2023/01/26 18:14:33;;;;;;;18.00;10.63;;;;;;;;;;10481709;28;20076;-82
2023/01/26 18:19:37;;;;;;;14.70;8.45;;;;;;;;;;10438561;28;20099;-84
2023/01/26 18:24:42;;;;;;;10.88;6.75;;;;;;;;;;10443633;28;20087;-88
2023/01/26 18:29:46;;;;;;;9.13;5.65;;;;;;;;;;10476941;28;20143;-85
2023/01/26 18:34:50;;;;;;;13.60;7.30;;;;;;;;;;10452549;28;20044;-85
2023/01/26 18:39:55;;;;;;;10.32;5.78;;;;;;;;;;10435774;28;20072;-85
2023/01/26 18:44:59;;;;;;;10.35;5.35;;;;;;;;;;10450875;28;20040;-84
2023/01/26 18:50:03;;;;;;;7.97;4.82;;;;;;;;;;10456612;28;20102;-82
2023/01/26 18:55:09;;;;;;;8.18;4.35;;;;;;;;;;10447261;28;20752;-82
2023/01/26 19:00:14;;;;;;;9.30;5.03;;;;;;;;;;10459201;28;20049;-83
2023/01/26 19:05:20;;;;;;;7.68;4.43;;;;;;;;;;10451448;28;20478;-83
2023/01/26 19:10:25;;;;;;;5.18;3.15;;;;;;;;;;10432740;28;20140;-83
2023/01/26 19:15:29;;;;;;;7.72;4.55;;;;;;;;;;10412599;28;20457;-84
2023/01/26 19:20:33;;;;;;;6.22;3.88;;;;;;;;;;10417049;28;20522;-87
2023/01/26 19:25:37;;;;;;;5.15;3.25;;;;;;;;;;10429657;28;20047;-84
2023/01/26 19:30:43;;;;;;;4.65;3.08;;;;;;;;;;10416127;28;20139;-86
2023/01/26 19:35:51;;;;;;;7.05;4.40;;;;;;;;;;10410931;28;20124;-87
2023/01/26 19:40:56;;;;;;;6.53;4.20;;;;;;;;;;10438477;28;20044;-85
2023/01/26 19:46:00;;;;;;;5.60;3.90;;;;;;;;;;10436389;28;20037;-85
2023/01/26 19:51:06;;;;;;;7.57;4.68;;;;;;;;;;10445326;28;20048;-85
2023/01/26 19:56:12;;;;;;;5.75;3.75;;;;;;;;;;10446817;28;20041;-86
2023/01/26 20:01:15;;;;;;;4.35;2.90;;;;;;;;;;10441969;28;20051;-86
2023/01/26 20:06:20;;;;;;;4.70;3.13;;;;;;;;;;10438117;28;20333;-85
2023/01/26 20:11:27;;;;;;;3.83;2.35;;;;;;;;;;10446887;28;20109;-86
2023/01/26 20:16:33;;;;;;;3.47;2.05;;;;;;;;;;10454816;28;20045;-86
2023/01/26 20:21:37;;;;;;;3.47;2.60;;;;;;;;;;10445231;28;20650;-88
2023/01/26 20:26:43;;;;;;;3.50;2.03;;;;;;;;;;10454674;28;20061;-86
2023/01/26 20:31:59;;;;;;;4.43;2.90;;;;;;;;;;10422702;28;20048;-87
2023/01/26 20:37:03;;;;;;;2.92;2.13;;;;;;;;;;10410861;28;20045;-88
2023/01/26 20:42:10;;;;;;;2.88;2.22;;;;;;;;;;10431511;28;20132;-84
2023/01/26 20:47:13;;;;;;;4.20;2.60;;;;;;;;;;10433380;28;20128;-87
2023/01/26 20:52:17;;;;;;;3.67;2.22;;;;;;;;;;10435565;28;20068;-86
2023/01/26 20:57:22;;;;;;;4.10;2.25;;;;;;;;;;10446804;28;20131;-85
2023/01/26 21:02:26;;;;;;;3.90;2.55;;;;;;;;;;10421120;28;20049;-83
2023/01/26 21:07:29;;;;;;;3.15;2.15;;;;;;;;;;10437823;28;20041;-83
2023/01/26 21:12:36;;;;;;;3.83;2.63;;;;;;;;;;10423153;28;20060;-85
2023/01/26 21:17:44;;;;;;;3.15;2.35;;;;;;;;;;10445629;28;20414;-83
2023/01/26 21:22:59;;;;;;;4.15;2.63;;;;;;;;;;10416801;28;20582;-89
2023/01/26 21:28:05;;;;;;;3.25;2.28;;;;;;;;;;10431733;28;20128;-83
2023/01/26 21:33:08;;;;;;;3.55;2.67;;;;;;;;;;10418384;28;20079;-84
2023/01/26 21:38:11;;;;;;;2.67;1.90;;;;;;;;;;10413507;28;20140;-83
2023/01/26 21:43:18;;;;;;;3.97;2.20;;;;;;;;;;10430824;28;20044;-83
2023/01/26 21:48:30;;;;;;;3.22;2.22;;;;;;;;;;10425188;28;20033;-87
2023/01/26 21:53:34;;;;;;;3.08;2.38;;;;;;;;;;10431147;28;20041;-85
2023/01/26 21:58:56;;;;;;;3.38;2.38;;;;;;;;;;10426211;28;20045;-83
2023/01/26 22:04:02;;;;;;;2.63;2.08;;;;;;;;;;10428054;28;20045;-85
2023/01/26 22:09:07;;;;;;;4.00;2.60;;;;;;;;;;10442150;28;20055;-83
2023/01/26 22:14:16;;;;;;;4.35;2.47;;;;;;;;;;10440925;28;20076;-88
2023/01/26 22:19:22;;;;;;;4.93;2.38;;;;;;;;;;10430894;28;20136;-86
2023/01/26 22:24:26;;;;;;;4.03;2.42;;;;;;;;;;10429887;28;20471;-85
2023/01/26 22:29:34;;;;;;;3.20;2.15;;;;;;;;;;10430862;28;20115;-87
2023/01/26 22:34:39;;;;;;;3.65;2.35;;;;;;;;;;10439327;28;20041;-85
2023/01/26 22:39:43;;;;;;;4.47;2.95;;;;;;;;;;10429263;28;20065;-87
2023/01/26 22:44:48;;;;;;;2.92;2.28;;;;;;;;;;10437731;28;20068;-85
2023/01/26 22:49:51;;;;;;;2.23;1.73;;;;;;;;;;10441372;28;20059;-88
2023/01/26 22:54:55;;;;;;;3.03;2.08;;;;;;;;;;10428784;28;20132;-87
2023/01/26 23:00:00;;;;;;;2.83;2.05;;;;;;;;;;10432223;28;20120;-88
2023/01/26 23:05:04;;;;;;;3.20;2.42;;;;;;;;;;10446683;28;20095;-85
2023/01/26 23:10:08;;;;;;;2.33;1.80;;;;;;;;;;10427502;28;20045;-83
2023/01/26 23:15:13;;;;;;;2.88;1.98;;;;;;;;;;10429770;28;20075;-84
2023/01/26 23:20:18;;;;;;;2.55;2.05;;;;;;;;;;10425648;28;20581;-86
2023/01/26 23:30:44;;;;;;;3.40;2.00;;;;;;;;;;10424750;28;20548;-86
2023/01/26 23:35:47;;;;;;;2.80;2.10;;;;;;;;;;10438312;28;20615;-87
2023/01/26 23:40:51;;;;;;;2.85;2.10;;;;;;;;;;10438796;28;20071;-85
2023/01/26 23:45:57;;;;;;;2.38;1.85;;;;;;;;;;10437127;28;20049;-86
2023/01/26 23:51:03;;;;;;;3.27;2.17;;;;;;;;;;10437728;28;20048;-86
2023/01/26 23:56:12;;;;;;;3.25;2.17;;;;;;;;;;10439175;28;20056;-86
